Time;durP1;ratioP1;P1;durP2;ratioP2;P2;SDS_P1;SDS_P2;PMS_P1;PMS_P2;Temp;Humidity;BMP_temperature;BMP_pressure;BME280_temperature;BME280_humidity;BME280_pressure;Samples;Min_cycle;Max_cycle;Signal;HPM_P1;HPM_P2
2024/03/24 00:00:25;;;;;;;10.30;3.70;;;5.20;99.90;;;;;;5071523;28;20024;-49
2024/03/24 00:02:51;;;;;;;11.07;4.13;;;5.30;99.90;;;;;;5071364;28;20036;-48
2024/03/24 00:05:16;;;;;;;9.27;4.30;;;5.30;99.90;;;;;;5071150;28;20043;-48
2024/03/24 00:07:42;;;;;;;9.70;3.93;;;5.30;99.90;;;;;;5071494;28;20032;-52
2024/03/24 00:10:08;;;;;;;9.17;4.47;;;5.30;99.90;;;;;;5071451;28;20054;-48
2024/03/24 00:12:33;;;;;;;9.63;4.70;;;5.30;99.90;;;;;;5053516;28;20097;-49
2024/03/24 00:14:59;;;;;;;13.43;4.60;;;5.20;99.90;;;;;;5053299;28;20116;-50
2024/03/24 00:17:25;;;;;;;9.23;4.00;;;5.20;99.90;;;;;;5071797;28;20020;-50
2024/03/24 00:19:51;;;;;;;12.97;4.47;;;5.20;99.90;;;;;;5071281;28;20118;-48
2024/03/24 00:22:17;;;;;;;10.40;3.70;;;5.20;99.90;;;;;;5071242;28;20131;-51
2024/03/24 00:24:42;;;;;;;8.70;3.63;;;5.10;99.90;;;;;;5071305;28;20036;-52
2024/03/24 00:27:08;;;;;;;8.73;4.40;;;5.10;99.90;;;;;;5074811;28;20101;-49
2024/03/24 00:29:33;;;;;;;11.03;4.23;;;5.20;99.90;;;;;;5074952;28;20032;-50
2024/03/24 00:31:59;;;;;;;8.10;3.93;;;5.10;99.90;;;;;;5056988;28;20048;-48
2024/03/24 00:34:24;;;;;;;9.83;4.10;;;5.10;99.90;;;;;;5074706;28;20427;-51
2024/03/24 00:36:50;;;;;;;10.23;3.90;;;5.10;99.90;;;;;;5074710;28;20029;-49
2024/03/24 00:39:17;;;;;;;10.40;4.10;;;5.10;99.90;;;;;;5074888;28;20058;-51
2024/03/24 00:41:43;;;;;;;10.23;4.43;;;5.10;99.90;;;;;;5074750;28;20043;-48
2024/03/24 00:44:08;;;;;;;14.53;4.93;;;5.10;99.90;;;;;;5074624;28;20028;-51
2024/03/24 00:46:34;;;;;;;11.27;4.87;;;5.10;99.90;;;;;;5074626;28;20058;-52
2024/03/24 00:48:59;;;;;;;12.20;4.57;;;5.00;99.90;;;;;;5074727;28;20393;-50
2024/03/24 00:51:25;;;;;;;12.27;4.63;;;5.00;99.90;;;;;;5074500;28;20073;-51
2024/03/24 00:53:54;;;;;;;11.63;4.75;;;5.00;99.90;;;;;;5074710;28;20105;-52
2024/03/24 00:56:19;;;;;;;12.73;4.97;;;5.10;99.90;;;;;;5074237;28;20067;-51
2024/03/24 00:58:45;;;;;;;9.53;5.10;;;5.10;99.90;;;;;;5075336;28;20074;-51
2024/03/24 01:01:10;;;;;;;10.70;5.40;;;5.10;99.90;;;;;;5074305;28;20028;-48
2024/03/24 01:03:36;;;;;;;14.17;5.63;;;5.10;99.90;;;;;;5074418;28;20028;-52
2024/03/24 01:06:04;;;;;;;10.00;4.80;;;5.10;99.90;;;;;;5074337;28;20042;-53
2024/03/24 01:08:29;;;;;;;14.13;5.40;;;5.20;99.90;;;;;;5056627;28;20473;-51
2024/03/24 01:10:55;;;;;;;11.10;4.87;;;5.20;99.90;;;;;;5074166;28;20035;-52
2024/03/24 01:13:22;;;;;;;8.60;4.10;;;5.20;99.90;;;;;;5074179;28;20028;-51
2024/03/24 01:15:48;;;;;;;11.33;3.83;;;5.20;99.90;;;;;;5073819;28;20396;-49
2024/03/24 01:18:13;;;;;;;7.03;3.73;;;5.20;99.90;;;;;;5074043;28;20107;-49
2024/03/24 01:20:39;;;;;;;7.27;3.70;;;5.30;99.90;;;;;;5073991;28;20067;-48
2024/03/24 01:23:05;;;;;;;9.90;3.80;;;5.30;99.90;;;;;;5074081;28;20130;-48
2024/03/24 01:25:31;;;;;;;9.90;3.80;;;5.30;99.90;;;;;;5073724;28;20055;-50
2024/03/24 01:27:57;;;;;;;14.37;3.93;;;5.30;99.90;;;;;;5073929;28;20036;-50
2024/03/24 01:30:24;;;;;;;9.37;3.77;;;5.40;99.90;;;;;;5073727;28;20470;-52
2024/03/24 01:32:49;;;;;;;12.50;4.20;;;5.50;99.90;;;;;;5073845;28;20048;-49
2024/03/24 01:35:15;;;;;;;10.10;4.30;;;5.50;99.90;;;;;;5073474;28;20025;-50
2024/03/24 01:37:41;;;;;;;9.80;4.47;;;5.50;99.90;;;;;;5073037;28;20496;-48
2024/03/24 01:40:07;;;;;;;10.37;4.70;;;5.50;99.90;;;;;;5073629;28;20128;-51
2024/03/24 01:42:33;;;;;;;11.77;5.17;;;5.60;99.90;;;;;;5073687;28;20428;-49
2024/03/24 01:44:59;;;;;;;9.10;4.83;;;5.60;99.90;;;;;;5073365;28;20025;-48
2024/03/24 01:47:24;;;;;;;10.63;4.83;;;5.60;99.90;;;;;;5055722;28;20540;-48
2024/03/24 01:49:50;;;;;;;13.07;4.73;;;5.60;99.90;;;;;;5073347;28;20052;-52
2024/03/24 01:52:16;;;;;;;12.03;5.33;;;5.60;99.90;;;;;;5073450;28;20037;-46
2024/03/24 01:54:42;;;;;;;10.73;5.30;;;5.60;99.90;;;;;;5073214;28;20029;-48
2024/03/24 01:57:10;;;;;;;12.00;4.87;;;5.60;99.90;;;;;;5073270;28;20150;-47
2024/03/24 01:59:35;;;;;;;11.83;6.07;;;5.60;99.90;;;;;;5073135;28;20506;-47
2024/03/24 02:02:01;;;;;;;13.03;6.07;;;5.60;99.90;;;;;;5073279;28;20039;-51
2024/03/24 02:04:27;;;;;;;11.97;5.37;;;5.60;99.90;;;;;;5055053;28;20481;-50
2024/03/24 02:06:53;;;;;;;12.20;5.67;;;5.60;99.90;;;;;;5073226;28;20037;-49
2024/03/24 02:09:18;;;;;;;10.67;5.40;;;5.60;99.90;;;;;;5073097;28;20020;-49
2024/03/24 02:11:44;;;;;;;15.10;5.33;;;5.60;99.90;;;;;;5073083;28;20503;-49
2024/03/24 02:14:10;;;;;;;14.50;6.07;;;5.60;99.90;;;;;;5072812;28;20136;-48
2024/03/24 02:16:36;;;;;;;11.73;6.07;;;5.60;99.90;;;;;;5072922;28;20231;-48
2024/03/24 02:19:04;;;;;;;16.50;6.23;;;5.70;99.90;;;;;;5072881;28;20028;-47
2024/03/24 02:21:30;;;;;;;12.55;6.20;;;5.70;99.90;;;;;;5072843;28;20024;-50
2024/03/24 02:23:56;;;;;;;11.50;5.67;;;5.60;99.90;;;;;;5072729;28;20098;-51
2024/03/24 02:26:22;;;;;;;11.73;5.77;;;5.70;99.90;;;;;;5072717;28;20033;-50
2024/03/24 02:28:47;;;;;;;13.37;5.40;;;5.70;99.90;;;;;;5072674;28;20036;-48
2024/03/24 02:31:13;;;;;;;10.70;5.20;;;5.70;99.90;;;;;;5072567;28;20111;-51
2024/03/24 02:33:39;;;;;;;12.73;5.60;;;5.70;99.90;;;;;;5072526;28;20505;-49
2024/03/24 02:36:05;;;;;;;12.67;5.53;;;5.60;99.90;;;;;;5072299;28;20104;-53
2024/03/24 02:38:31;;;;;;;12.63;5.50;;;5.70;99.90;;;;;;5072886;28;20477;-48
2024/03/24 02:40:56;;;;;;;8.53;4.23;;;5.60;99.90;;;;;;5072883;28;20040;-49
2024/03/24 02:43:22;;;;;;;7.73;3.57;;;5.60;99.90;;;;;;5072490;28;20020;-51
2024/03/24 02:45:57;;;;;;;10.73;4.10;;;5.60;99.90;;;;;;5072192;28;20131;-50
2024/03/24 02:48:23;;;;;;;7.47;3.90;;;5.60;99.90;;;;;;5071848;28;20029;-49
2024/03/24 02:50:49;;;;;;;8.23;3.77;;;5.60;99.90;;;;;;5071801;28;20417;-50
2024/03/24 02:53:16;;;;;;;7.87;4.00;;;5.50;99.90;;;;;;5072280;28;20025;-50
2024/03/24 02:55:48;;;;;;;6.83;3.60;;;5.50;99.90;;;;;;5071852;28;20033;-49
2024/03/24 02:58:15;;;;;;;7.60;3.50;;;5.40;99.90;;;;;;5072171;28;20562;-51
2024/03/24 03:00:41;;;;;;;8.83;3.50;;;5.40;99.90;;;;;;5072118;28;20508;-50
2024/03/24 03:03:08;;;;;;;6.20;3.77;;;5.40;99.90;;;;;;5072058;28;20040;-50
2024/03/24 03:05:34;;;;;;;10.40;3.90;;;5.30;99.90;;;;;;5072321;28;20090;-48
2024/03/24 03:08:02;;;;;;;8.97;4.20;;;5.30;99.90;;;;;;5072054;28;20025;-47
2024/03/24 03:10:30;;;;;;;11.70;4.22;;;5.20;99.90;;;;;;5071910;28;20123;-48
2024/03/24 03:12:57;;;;;;;10.33;4.33;;;5.20;99.90;;;;;;5054125;28;20485;-50
2024/03/24 03:15:23;;;;;;;9.23;4.07;;;5.20;99.90;;;;;;5071883;28;20400;-48
2024/03/24 03:17:48;;;;;;;8.50;4.20;;;5.10;99.90;;;;;;5072233;28;20393;-49
2024/03/24 03:20:14;;;;;;;10.93;4.07;;;5.10;99.90;;;;;;5071751;28;20044;-51
2024/03/24 03:22:40;;;;;;;9.90;4.50;;;5.10;99.90;;;;;;5071866;28;20028;-50
2024/03/24 03:25:07;;;;;;;10.80;5.30;;;5.10;99.90;;;;;;5071719;28;20737;-48
2024/03/24 03:27:36;;;;;;;6.10;3.83;;;5.20;99.90;;;;;;5071855;28;20481;-53
2024/03/24 03:30:03;;;;;;;11.93;4.43;;;5.20;99.90;;;;;;5071805;28;20033;-50
2024/03/24 03:32:29;;;;;;;8.03;4.17;;;5.20;99.90;;;;;;5071741;28;20037;-52
2024/03/24 03:34:55;;;;;;;8.13;3.97;;;5.20;99.90;;;;;;5071540;28;20040;-50
2024/03/24 03:37:21;;;;;;;8.60;4.57;;;5.20;99.90;;;;;;5071609;28;20024;-52
2024/03/24 03:39:47;;;;;;;9.13;4.20;;;5.20;99.90;;;;;;5071580;28;20033;-48
2024/03/24 03:42:13;;;;;;;8.67;4.30;;;5.20;99.90;;;;;;5071711;28;20021;-48
2024/03/24 03:44:43;;;;;;;8.13;4.57;;;5.20;99.90;;;;;;5071455;28;20036;-48
2024/03/24 03:47:09;;;;;;;9.07;4.40;;;5.20;99.90;;;;;;5071563;28;20381;-49
2024/03/24 03:49:35;;;;;;;7.70;4.70;;;5.30;99.90;;;;;;5053486;28;20024;-48
2024/03/24 03:52:01;;;;;;;10.50;4.40;;;5.30;99.90;;;;;;5071603;28;20040;-48
2024/03/24 03:54:27;;;;;;;12.90;4.33;;;5.30;99.90;;;;;;5071311;28;20108;-49
2024/03/24 03:56:53;;;;;;;12.77;5.03;;;5.30;99.90;;;;;;5071433;28;20064;-49
2024/03/24 03:59:19;;;;;;;11.67;4.70;;;5.30;99.90;;;;;;5071512;28;20446;-49
2024/03/24 04:01:45;;;;;;;9.40;4.43;;;5.30;99.90;;;;;;5074404;28;20064;-50
2024/03/24 04:04:10;;;;;;;10.77;4.50;;;5.30;99.90;;;;;;5075266;28;20031;-48
2024/03/24 04:06:36;;;;;;;9.83;4.47;;;5.30;99.90;;;;;;5075268;28;20078;-48
2024/03/24 04:09:02;;;;;;;9.07;4.30;;;5.40;99.90;;;;;;5075464;28;20025;-48
2024/03/24 04:11:29;;;;;;;8.63;4.10;;;5.40;99.90;;;;;;5075507;28;20067;-48
2024/03/24 04:13:54;;;;;;;8.80;4.30;;;5.40;99.90;;;;;;5056961;28;20074;-49
2024/03/24 04:16:20;;;;;;;8.90;4.10;;;5.40;99.90;;;;;;5075052;28;20028;-47
2024/03/24 04:18:49;;;;;;;8.13;3.30;;;5.40;99.90;;;;;;5075156;28;20048;-48
2024/03/24 04:21:16;;;;;;;14.43;4.63;;;5.40;99.90;;;;;;5075057;28;20101;-47
2024/03/24 04:23:42;;;;;;;13.73;4.90;;;5.40;99.90;;;;;;5057240;28;20071;-47
2024/03/24 04:26:08;;;;;;;9.43;4.40;;;5.40;99.90;;;;;;5074811;28;20087;-49
2024/03/24 04:28:34;;;;;;;9.63;4.13;;;5.40;99.90;;;;;;5075004;28;20401;-49
2024/03/24 04:30:59;;;;;;;10.90;4.80;;;5.40;99.90;;;;;;5074865;28;20081;-49
2024/03/24 04:33:26;;;;;;;10.80;4.87;;;5.40;99.90;;;;;;5074951;28;20103;-49
2024/03/24 04:35:52;;;;;;;11.20;4.57;;;5.40;99.90;;;;;;5074446;28;20040;-48
2024/03/24 04:38:19;;;;;;;12.80;4.40;;;5.40;99.90;;;;;;5074936;28;20507;-47
2024/03/24 04:40:45;;;;;;;11.00;4.80;;;5.40;99.90;;;;;;5057125;28;20124;-48
2024/03/24 04:43:13;;;;;;;9.50;4.30;;;5.40;99.90;;;;;;5074782;28;20051;-48
2024/03/24 04:45:41;;;;;;;10.67;4.13;;;5.40;99.90;;;;;;5074438;28;20568;-47
2024/03/24 04:48:07;;;;;;;10.93;4.97;;;5.40;99.90;;;;;;5074563;28;20051;-49
2024/03/24 04:50:32;;;;;;;9.63;4.37;;;5.40;99.90;;;;;;5074552;28;20029;-48
2024/03/24 04:52:58;;;;;;;8.93;4.30;;;5.50;99.90;;;;;;5074479;28;20447;-48
2024/03/24 04:55:25;;;;;;;8.60;3.80;;;5.40;99.90;;;;;;5074200;28;20028;-49
2024/03/24 04:57:51;;;;;;;11.00;3.47;;;5.50;99.90;;;;;;5075176;28;20485;-49
2024/03/24 05:00:18;;;;;;;6.37;3.70;;;5.50;99.90;;;;;;5074364;28;20031;-49
2024/03/24 05:02:45;;;;;;;8.37;3.53;;;5.50;99.90;;;;;;5074347;28;20071;-50
2024/03/24 05:05:12;;;;;;;6.70;3.13;;;5.50;99.90;;;;;;5074239;28;20028;-52
2024/03/24 05:07:38;;;;;;;10.77;3.40;;;5.50;99.90;;;;;;5074421;28;20029;-48
2024/03/24 05:10:04;;;;;;;8.83;3.60;;;5.50;99.90;;;;;;5074239;28;20032;-48
2024/03/24 05:12:29;;;;;;;11.43;4.60;;;5.50;99.90;;;;;;5055321;28;20036;-48
2024/03/24 05:14:55;;;;;;;7.03;3.60;;;5.40;99.90;;;;;;5074002;28;20060;-48
2024/03/24 05:17:20;;;;;;;8.53;3.40;;;5.40;99.90;;;;;;5074138;28;20063;-48
2024/03/24 05:19:46;;;;;;;8.27;3.60;;;5.40;99.90;;;;;;5073997;28;20052;-48
2024/03/24 05:22:12;;;;;;;7.97;3.73;;;5.40;99.90;;;;;;5074116;28;20027;-48
2024/03/24 05:24:38;;;;;;;7.20;3.53;;;5.40;99.90;;;;;;5074184;28;20024;-47
2024/03/24 05:27:04;;;;;;;8.03;3.70;;;5.30;99.90;;;;;;5074130;28;20560;-51
2024/03/24 05:29:31;;;;;;;9.60;3.43;;;5.30;99.90;;;;;;5073992;28;20054;-48
2024/03/24 05:31:57;;;;;;;6.37;3.60;;;5.30;99.90;;;;;;5073837;28;20052;-47
2024/03/24 05:34:25;;;;;;;6.20;2.97;;;5.30;99.90;;;;;;5074005;28;20100;-48
2024/03/24 05:36:51;;;;;;;6.13;3.37;;;5.30;99.90;;;;;;5073854;28;20040;-47
2024/03/24 05:39:17;;;;;;;6.50;3.20;;;5.20;99.90;;;;;;5073718;28;20469;-49
2024/03/24 05:41:48;;;;;;;8.83;3.60;;;5.20;99.90;;;;;;5073587;28;20028;-48
2024/03/24 05:44:14;;;;;;;6.20;3.00;;;5.20;99.90;;;;;;5073502;28;20056;-46
2024/03/24 05:46:40;;;;;;;6.20;3.30;;;5.10;99.90;;;;;;5073476;28;20476;-48
2024/03/24 05:49:06;;;;;;;7.10;3.40;;;5.20;99.90;;;;;;5073382;28;20062;-48
2024/03/24 05:51:31;;;;;;;7.93;4.03;;;5.10;99.90;;;;;;5073497;28;20064;-48
2024/03/24 05:53:57;;;;;;;9.07;4.23;;;5.10;99.90;;;;;;5073240;28;20024;-49
2024/03/24 05:56:23;;;;;;;11.50;5.50;;;5.20;99.90;;;;;;5073163;28;20024;-51
2024/03/24 05:58:48;;;;;;;8.10;4.83;;;5.20;99.90;;;;;;5073319;28;20020;-47
2024/03/24 06:01:14;;;;;;;13.60;5.97;;;5.20;99.90;;;;;;5073200;28;20031;-48
2024/03/24 06:03:39;;;;;;;14.43;6.70;;;5.20;99.90;;;;;;5055494;28;20033;-51
2024/03/24 06:06:05;;;;;;;12.30;5.20;;;5.30;99.90;;;;;;5073026;28;20431;-50
2024/03/24 06:08:34;;;;;;;13.30;6.27;;;5.40;99.90;;;;;;5073152;28;20039;-53
2024/03/24 06:11:00;;;;;;;14.30;5.88;;;5.30;99.90;;;;;;5073136;28;20041;-49
2024/03/24 06:13:25;;;;;;;18.97;6.87;;;5.30;99.90;;;;;;5073119;28;20047;-47
2024/03/24 06:15:51;;;;;;;12.60;5.90;;;5.40;99.90;;;;;;5072738;28;20025;-52
2024/03/24 06:18:17;;;;;;;13.37;5.30;;;5.40;99.90;;;;;;5073013;28;20035;-53
2024/03/24 06:20:43;;;;;;;14.13;6.80;;;5.40;99.90;;;;;;5055236;28;20028;-50
2024/03/24 06:23:08;;;;;;;18.73;6.13;;;5.40;99.90;;;;;;5072718;28;20025;-50
2024/03/24 06:25:34;;;;;;;13.30;5.30;;;5.30;99.90;;;;;;5072823;28;20028;-50
2024/03/24 06:28:03;;;;;;;17.10;4.77;;;5.10;99.90;;;;;;5072763;28;20509;-52
2024/03/24 06:30:29;;;;;;;;;;;5.00;99.90;;;;;;5073112;28;20036;-48
2024/03/24 06:32:55;;;;;;;10.83;3.83;;;4.70;99.90;;;;;;5072655;28;19961;-48
2024/03/24 06:35:21;;;;;;;8.00;2.50;;;4.60;99.90;;;;;;5072324;28;20036;-48
2024/03/24 06:37:46;;;;;;;5.50;1.57;;;4.50;99.90;;;;;;5072631;28;20031;-49
2024/03/24 06:40:12;;;;;;;4.03;1.60;;;4.40;99.90;;;;;;5054496;28;20031;-49
2024/03/24 06:42:43;;;;;;;4.57;1.87;;;4.40;99.90;;;;;;5072418;28;20032;-48
2024/03/24 06:45:12;;;;;;;6.83;1.90;;;4.30;99.90;;;;;;5072340;28;20048;-52
2024/03/24 06:47:38;;;;;;;6.28;1.90;;;4.20;99.90;;;;;;5072433;28;20055;-48
2024/03/24 06:50:08;;;;;;;7.40;1.97;;;4.00;99.90;;;;;;5054324;28;20036;-51
2024/03/24 06:52:34;;;;;;;;;;;3.90;99.90;;;;;;5072983;28;20401;-50
2024/03/24 06:54:59;;;;;;;7.60;1.80;;;3.80;99.90;;;;;;5054073;28;19914;-52
2024/03/24 06:57:26;;;;;;;4.20;1.50;;;3.80;99.90;;;;;;5072067;28;20066;-48
2024/03/24 06:59:52;;;;;;;3.57;1.53;;;3.80;99.90;;;;;;5072054;28;20591;-51
2024/03/24 07:02:18;;;;;;;3.73;1.63;;;3.80;99.90;;;;;;5072219;28;20029;-49
2024/03/24 07:04:44;;;;;;;4.50;1.60;;;3.80;99.90;;;;;;5072047;28;20024;-50
2024/03/24 07:07:09;;;;;;;4.13;1.63;;;3.80;99.90;;;;;;5053977;28;20033;-50
2024/03/24 07:09:35;;;;;;;3.80;1.43;;;3.90;99.90;;;;;;5071983;28;20509;-48
2024/03/24 07:12:01;;;;;;;5.30;1.40;;;3.90;99.90;;;;;;5071995;28;20024;-52
2024/03/24 07:14:27;;;;;;;4.63;1.97;;;3.90;99.90;;;;;;5071956;28;20461;-48
2024/03/24 07:16:53;;;;;;;4.47;1.87;;;3.90;99.90;;;;;;5071854;28;20055;-52
2024/03/24 07:19:19;;;;;;;4.13;1.77;;;3.90;99.90;;;;;;5072011;28;20027;-49
2024/03/24 07:21:47;;;;;;;6.63;2.17;;;4.00;99.90;;;;;;5071973;28;20095;-50
2024/03/24 07:24:13;;;;;;;5.67;1.93;;;4.10;99.90;;;;;;5071896;28;20091;-51
2024/03/24 07:26:38;;;;;;;8.10;1.90;;;4.10;99.90;;;;;;5071714;28;20423;-50
2024/03/24 07:29:04;;;;;;;5.37;2.10;;;4.20;99.90;;;;;;5071956;28;20568;-52
2024/03/24 07:31:30;;;;;;;6.13;2.13;;;4.20;99.90;;;;;;5071844;28;20068;-50
2024/03/24 07:33:56;;;;;;;5.27;2.10;;;4.20;99.90;;;;;;5071644;28;20036;-54
2024/03/24 07:36:22;;;;;;;6.40;2.00;;;4.30;99.90;;;;;;5071061;28;20024;-54
2024/03/24 07:38:49;;;;;;;5.93;2.27;;;4.30;99.90;;;;;;5053870;28;20370;-49
2024/03/24 07:41:15;;;;;;;6.90;2.13;;;4.40;99.90;;;;;;5071630;28;20029;-50
2024/03/24 07:43:41;;;;;;;6.17;2.30;;;4.50;99.90;;;;;;5071734;28;20036;-49
2024/03/24 07:46:07;;;;;;;7.73;3.00;;;4.60;99.90;;;;;;5071546;28;20044;-50
2024/03/24 07:48:33;;;;;;;6.70;2.97;;;4.80;99.90;;;;;;5071689;28;20029;-50
2024/03/24 07:50:58;;;;;;;8.50;2.70;;;5.00;99.90;;;;;;5070687;28;20025;-49
2024/03/24 07:53:25;;;;;;;9.67;3.40;;;5.10;99.90;;;;;;5071678;28;20024;-51
2024/03/24 07:55:51;;;;;;;8.60;3.10;;;5.30;99.90;;;;;;5071188;28;20393;-52
2024/03/24 07:58:16;;;;;;;9.23;3.27;;;5.50;99.90;;;;;;5071588;28;20028;-52
2024/03/24 08:00:42;;;;;;;10.83;3.93;;;5.60;99.90;;;;;;5071657;28;20239;-48
2024/03/24 08:03:08;;;;;;;10.23;3.47;;;5.70;99.90;;;;;;5071634;28;20112;-53
2024/03/24 08:05:33;;;;;;;9.00;3.53;;;5.80;99.90;;;;;;5053319;28;20035;-51
2024/03/24 08:07:59;;;;;;;10.73;3.37;;;5.90;99.90;;;;;;5071509;28;20033;-48
2024/03/24 08:10:24;;;;;;;8.83;4.10;;;6.10;99.90;;;;;;5071452;28;20024;-50
2024/03/24 08:12:50;;;;;;;6.77;3.27;;;6.10;99.90;;;;;;5071667;28;20119;-49
2024/03/24 08:15:16;;;;;;;7.70;3.53;;;6.00;99.90;;;;;;5053280;28;20036;-52
2024/03/24 08:17:41;;;;;;;8.27;3.77;;;6.00;99.90;;;;;;5071474;28;20474;-49
2024/03/24 08:20:08;;;;;;;11.67;4.20;;;6.10;99.90;;;;;;5071873;28;20024;-51
2024/03/24 08:22:33;;;;;;;10.50;4.30;;;6.10;99.90;;;;;;5071740;28;20032;-54
2024/03/24 08:24:59;;;;;;;13.17;5.60;;;6.20;99.90;;;;;;5071483;28;20055;-49
2024/03/24 08:27:24;;;;;;;13.60;5.10;;;6.30;99.90;;;;;;5071626;28;20092;-50
2024/03/24 08:29:50;;;;;;;10.43;4.50;;;6.40;99.90;;;;;;5071304;28;20108;-52
2024/03/24 08:32:17;;;;;;;13.60;4.33;;;6.50;99.90;;;;;;5071389;28;20028;-52
2024/03/24 08:34:43;;;;;;;10.63;4.30;;;6.70;99.90;;;;;;5071092;28;20089;-52
2024/03/24 08:37:09;;;;;;;12.27;4.57;;;6.80;99.90;;;;;;5071198;28;20115;-51
2024/03/24 08:39:34;;;;;;;10.40;4.03;;;6.80;99.90;;;;;;5070997;28;20111;-52
2024/03/24 08:42:00;;;;;;;11.83;4.43;;;6.80;99.90;;;;;;5071228;28;20025;-48
2024/03/24 08:44:26;;;;;;;9.37;4.20;;;6.80;99.90;;;;;;5071056;28;20047;-52
2024/03/24 08:46:52;;;;;;;10.70;3.83;;;7.00;99.90;;;;;;5072534;28;20043;-52
2024/03/24 08:49:17;;;;;;;11.53;4.17;;;7.40;99.90;;;;;;5074765;28;20401;-53
2024/03/24 08:51:43;;;;;;;10.97;4.40;;;7.70;99.90;;;;;;5073524;28;20507;-51
2024/03/24 08:54:09;;;;;;;10.27;3.80;;;8.00;99.90;;;;;;5074424;28;20056;-53
2024/03/24 08:56:35;;;;;;;10.43;4.20;;;8.10;99.90;;;;;;5074366;28;20476;-52
2024/03/24 08:59:00;;;;;;;10.80;3.77;;;8.30;99.90;;;;;;5074567;28;20033;-48
2024/03/24 09:01:26;;;;;;;10.97;3.67;;;8.30;99.90;;;;;;5073343;28;20028;-50
2024/03/24 09:03:52;;;;;;;12.07;4.17;;;8.20;99.90;;;;;;5074443;28;20086;-53
2024/03/24 09:06:17;;;;;;;11.67;3.67;;;8.20;99.90;;;;;;5074201;28;20028;-51
2024/03/24 09:08:43;;;;;;;9.47;4.27;;;8.20;99.90;;;;;;5074286;28;20107;-51
2024/03/24 09:11:09;;;;;;;11.67;3.70;;;8.20;99.90;;;;;;5074336;28;20120;-54
2024/03/24 09:13:36;;;;;;;12.73;3.83;;;8.20;99.90;;;;;;5074295;28;20396;-54
2024/03/24 09:16:03;;;;;;;11.17;4.00;;;8.20;99.90;;;;;;5073952;28;20047;-50
2024/03/24 09:18:28;;;;;;;9.50;3.97;;;8.10;99.90;;;;;;5074218;28;20050;-53
2024/03/24 09:20:56;;;;;;;10.23;4.07;;;8.10;99.90;;;;;;5074092;28;20024;-52
2024/03/24 09:23:24;;;;;;;10.50;4.20;;;8.30;99.90;;;;;;5074468;28;20109;-53
2024/03/24 09:25:50;;;;;;;10.33;4.00;;;8.50;99.90;;;;;;5073929;28;20501;-50
2024/03/24 09:28:16;;;;;;;11.73;3.47;;;8.70;99.90;;;;;;5074280;28;20457;-53
2024/03/24 09:30:41;;;;;;;9.90;4.00;;;8.80;99.90;;;;;;5073985;28;20024;-52
2024/03/24 09:33:07;;;;;;;6.63;2.67;;;9.00;99.90;;;;;;5074008;28;20040;-51
2024/03/24 09:35:32;;;;;;;6.80;2.50;;;9.20;99.90;;;;;;5073581;28;20054;-49
2024/03/24 09:37:58;;;;;;;8.50;3.17;;;9.40;99.90;;;;;;5073854;28;20371;-52
2024/03/24 09:40:25;;;;;;;9.97;3.43;;;9.80;99.90;;;;;;5073911;28;20031;-50
2024/03/24 09:42:54;;;;;;;11.20;3.00;;;10.20;99.90;;;;;;5073843;28;20032;-53
2024/03/24 09:45:22;;;;;;;8.03;3.03;;;10.00;99.90;;;;;;5073563;28;20028;-52
2024/03/24 09:47:49;;;;;;;8.70;3.10;;;9.70;99.90;;;;;;5073848;28;20032;-49
2024/03/24 09:50:15;;;;;;;6.70;2.60;;;9.60;99.90;;;;;;5073770;28;20389;-50
2024/03/24 09:52:44;;;;;;;10.63;2.90;;;9.60;99.90;;;;;;5073595;28;20025;-50
2024/03/24 09:55:15;;;;;;;8.63;2.58;;;9.90;99.90;;;;;;5073511;28;20036;-48
2024/03/24 09:57:42;;;;;;;9.20;2.63;;;10.50;99.90;;;;;;5073365;28;20032;-54
2024/03/24 10:00:09;;;;;;;11.37;2.80;;;10.80;99.90;;;;;;5073068;28;20028;-50
2024/03/24 10:02:42;;;;;;;7.90;2.30;;;11.20;99.90;;;;;;5073611;28;20475;-53
2024/03/24 10:05:10;;;;;;;8.98;2.65;;;12.00;99.90;;;;;;5073089;28;20036;-54
2024/03/24 10:07:35;;;;;;;9.90;2.25;;;12.60;99.90;;;;;;5073318;28;20029;-53
2024/03/24 10:10:01;;;;;;;7.05;2.25;;;13.40;99.90;;;;;;5073185;28;20531;-53
2024/03/24 10:12:27;;;;;;;6.53;2.00;;;14.30;99.90;;;;;;5073221;28;20044;-51
2024/03/24 10:14:52;;;;;;;8.00;2.03;;;14.90;99.90;;;;;;5072976;28;20032;-55
2024/03/24 10:17:19;;;;;;;5.93;1.77;;;14.60;99.90;;;;;;5073064;28;20051;-53
2024/03/24 10:19:51;;;;;;;7.72;1.77;;;14.40;99.90;;;;;;5072908;28;20473;-49
2024/03/24 10:22:17;;;;;;;9.15;2.38;;;14.00;99.90;;;;;;5072893;28;20021;-47
2024/03/24 10:24:44;;;;;;;8.75;2.20;;;13.30;99.90;;;;;;5072864;28;20500;-51
2024/03/24 10:27:14;;;;;;;8.75;2.55;;;12.30;99.90;;;;;;5072846;28;20477;-52
2024/03/24 10:29:40;;;;;;;7.82;1.90;;;11.70;99.90;;;;;;5072799;28;20035;-48
2024/03/24 10:32:08;;;;;;;8.43;2.03;;;11.10;99.90;;;;;;5073248;28;20022;-49
2024/03/24 10:34:35;;;;;;;9.80;2.30;;;10.60;99.90;;;;;;5072618;28;20056;-49
2024/03/24 10:37:01;;;;;;;11.13;2.40;;;10.30;99.90;;;;;;5072541;28;20114;-48
2024/03/24 10:39:27;;;;;;;9.60;2.50;;;10.10;99.90;;;;;;5072588;28;20041;-51
2024/03/24 10:41:54;;;;;;;10.60;2.17;;;10.00;99.90;;;;;;5072582;28;20089;-47
2024/03/24 10:44:21;;;;;;;10.33;2.10;;;9.90;99.90;;;;;;5072529;28;20029;-48
2024/03/24 10:46:49;;;;;;;10.67;2.67;;;9.90;99.90;;;;;;5054602;28;20048;-53
2024/03/24 10:49:19;;;;;;;10.97;2.30;;;9.80;99.90;;;;;;5072333;28;20032;-50
2024/03/24 10:51:48;;;;;;;9.33;2.50;;;9.80;99.90;;;;;;5072427;28;20439;-51
2024/03/24 10:54:14;;;;;;;10.40;2.30;;;9.80;99.90;;;;;;5072337;28;20047;-50
2024/03/24 10:56:40;;;;;;;11.40;3.10;;;9.70;99.90;;;;;;5072136;28;20029;-50
2024/03/24 10:59:07;;;;;;;11.20;2.73;;;9.60;99.90;;;;;;5072300;28;20103;-49
2024/03/24 11:01:35;;;;;;;8.40;2.67;;;9.60;99.90;;;;;;5072265;28;20496;-53
2024/03/24 11:04:03;;;;;;;7.47;1.73;;;9.50;99.90;;;;;;5072172;28;20470;-50
2024/03/24 11:06:31;;;;;;;9.33;2.10;;;9.50;99.90;;;;;;5072076;28;20028;-53
2024/03/24 11:08:56;;;;;;;11.50;2.20;;;9.50;99.90;;;;;;5072054;28;20045;-48
2024/03/24 11:11:22;;;;;;;8.83;2.00;;;9.30;99.90;;;;;;5071233;28;20094;-49
2024/03/24 11:13:50;;;;;;;6.80;1.87;;;9.10;99.90;;;;;;5071996;28;20488;-52
2024/03/24 11:16:23;;;;;;;6.53;1.63;;;9.10;99.90;;;;;;5071752;28;20032;-48
2024/03/24 11:18:48;;;;;;;6.13;1.40;;;9.00;99.90;;;;;;5072011;28;20483;-47
2024/03/24 11:21:39;;;;;;;7.87;1.33;;;9.00;99.90;;;;;;5071907;28;20021;-51
2024/03/24 11:24:26;;;;;;;5.47;1.60;;;8.90;99.90;;;;;;5071745;28;20527;-52
2024/03/24 11:26:52;;;;;;;8.17;1.70;;;8.90;99.90;;;;;;5071863;28;20035;-50
2024/03/24 11:29:50;;;;;;;7.70;1.70;;;8.80;99.90;;;;;;5071856;28;20043;-49
2024/03/24 11:32:19;;;;;;;8.80;1.67;;;8.50;99.90;;;;;;5071900;28;20032;-50
2024/03/24 11:34:51;;;;;;;;;;;8.40;99.90;;;;;;5072143;28;20151;-51
2024/03/24 11:37:16;;;;;;;6.57;1.53;;;8.30;99.90;;;;;;5071743;28;19981;-48
2024/03/24 11:39:43;;;;;;;9.97;2.10;;;8.20;99.90;;;;;;5071705;28;20541;-50
2024/03/24 11:42:12;;;;;;;11.70;2.03;;;8.00;99.90;;;;;;5071898;28;20111;-53
2024/03/24 11:44:38;;;;;;;13.68;3.15;;;7.80;99.90;;;;;;5071686;28;20028;-50
2024/03/24 11:47:04;;;;;;;9.73;2.53;;;7.50;99.90;;;;;;5071647;28;20122;-51
2024/03/24 11:49:39;;;;;;;13.13;2.43;;;7.40;99.90;;;;;;5071550;28;20024;-51
2024/03/24 11:52:07;;;;;;;12.07;3.17;;;7.30;99.90;;;;;;5071801;28;20036;-50
2024/03/24 11:54:34;;;;;;;;;;;7.20;99.90;;;;;;5072186;28;20032;-48
2024/03/24 11:57:00;;;;;;;11.23;2.27;;;7.20;99.90;;;;;;5071478;28;19955;-50
2024/03/24 11:59:26;;;;;;;11.03;3.10;;;7.30;99.90;;;;;;5071626;28;20117;-50
2024/03/24 12:01:52;;;;;;;16.97;2.93;;;7.40;99.90;;;;;;5071745;28;20028;-53
2024/03/24 12:04:18;;;;;;;9.50;2.80;;;7.50;99.90;;;;;;5071580;28;20119;-51
2024/03/24 12:06:45;;;;;;;14.30;4.23;;;7.60;99.90;;;;;;5071680;28;20029;-49
2024/03/24 12:09:12;;;;;;;19.33;4.53;;;7.90;99.90;;;;;;5071817;28;20107;-51
2024/03/24 12:11:38;;;;;;;19.07;5.00;;;8.10;99.90;;;;;;5053794;28;20067;-48
2024/03/24 12:14:09;;;;;;;17.93;4.77;;;8.40;99.90;;;;;;5071635;28;20036;-50
2024/03/24 12:16:35;;;;;;;17.70;4.40;;;8.60;99.90;;;;;;5072227;28;20424;-49
2024/03/24 12:19:01;;;;;;;14.67;3.80;;;8.80;99.90;;;;;;5072432;28;20086;-48
2024/03/24 12:21:28;;;;;;;11.73;2.80;;;9.00;99.90;;;;;;5073195;28;20029;-50
2024/03/24 12:23:54;;;;;;;10.87;1.90;;;9.10;99.90;;;;;;5076746;28;20043;-49
2024/03/24 12:26:21;;;;;;;7.73;2.30;;;9.20;99.90;;;;;;5076421;28;20473;-50
2024/03/24 12:28:53;;;;;;;9.90;2.37;;;9.30;99.90;;;;;;5076244;28;20460;-49
2024/03/24 12:31:20;;;;;;;7.00;1.80;;;9.60;99.90;;;;;;5075032;28;20058;-49
2024/03/24 12:33:49;;;;;;;5.00;1.83;;;9.70;99.90;;;;;;5074985;28;20024;-53
2024/03/24 12:36:15;;;;;;;6.85;1.80;;;9.90;99.90;;;;;;5074804;28;20025;-51
2024/03/24 12:38:42;;;;;;;4.50;1.90;;;10.10;99.90;;;;;;5074928;28;20106;-51
2024/03/24 12:41:08;;;;;;;5.53;1.70;;;10.50;99.90;;;;;;5074744;28;20031;-53
2024/03/24 12:43:33;;;;;;;5.00;1.47;;;10.80;99.90;;;;;;5074909;28;20390;-50
2024/03/24 12:46:02;;;;;;;3.70;1.20;;;10.90;99.90;;;;;;5074578;28;20029;-48
2024/03/24 12:48:30;;;;;;;4.25;1.13;;;10.90;99.90;;;;;;5056599;28;20032;-50